Time;durP1;ratioP1;P1;durP2;ratioP2;P2;SDS_P1;SDS_P2;PMS_P1;PMS_P2;Temp;Humidity;BMP_temperature;BMP_pressure;BME280_temperature;BME280_humidity;BME280_pressure;Samples;Min_cycle;Max_cycle;Signal;HPM_P1;HPM_P2
2022/07/05 00:02:15;;;;;;;3.50;2.70;;;16.10;99.90;;;;;;5114124;28;20170;-41
2022/07/05 00:04:41;;;;;;;8.80;3.20;;;16.00;99.90;;;;;;5115044;28;20174;-39
2022/07/05 00:07:19;;;;;;;4.97;3.27;;;16.00;99.90;;;;;;5114695;28;20285;-40
2022/07/05 00:09:56;;;;;;;4.03;2.90;;;16.00;99.90;;;;;;5115445;28;20248;-41
2022/07/05 00:12:24;;;;;;;3.87;3.13;;;16.00;99.90;;;;;;5117114;28;20637;-43
2022/07/05 00:14:50;;;;;;;4.63;3.23;;;15.90;99.90;;;;;;5117763;28;20205;-43
2022/07/05 00:17:16;;;;;;;5.27;2.87;;;15.90;99.90;;;;;;5122217;28;20177;-42
2022/07/05 00:19:42;;;;;;;3.60;2.70;;;15.80;99.90;;;;;;5125453;28;20198;-43
2022/07/05 00:22:08;;;;;;;3.87;3.20;;;15.80;99.90;;;;;;5128585;28;20195;-45
2022/07/05 00:24:34;;;;;;;5.23;3.30;;;15.80;99.90;;;;;;5129443;28;20175;-43
2022/07/05 00:27:00;;;;;;;5.47;3.80;;;15.80;99.90;;;;;;5130475;28;20185;-43
2022/07/05 00:29:25;;;;;;;4.23;3.20;;;15.70;99.90;;;;;;5130214;28;20274;-44
2022/07/05 00:31:51;;;;;;;4.63;3.10;;;15.70;99.90;;;;;;5130008;28;20174;-44
2022/07/05 00:34:17;;;;;;;4.87;3.13;;;15.70;99.90;;;;;;5122998;28;20171;-44
2022/07/05 00:36:42;;;;;;;4.73;3.70;;;15.60;99.90;;;;;;5124785;28;20289;-43
2022/07/05 00:39:08;;;;;;;6.87;3.73;;;15.60;99.90;;;;;;5126986;28;20194;-42
2022/07/05 00:41:35;;;;;;;4.60;3.60;;;15.60;99.90;;;;;;5118490;28;20680;-43
2022/07/05 00:44:07;;;;;;;5.77;3.40;;;15.60;99.90;;;;;;5117436;28;20179;-43
2022/07/05 00:46:33;;;;;;;4.57;3.70;;;15.50;99.90;;;;;;5118207;28;20190;-43
2022/07/05 00:49:00;;;;;;;4.60;3.50;;;15.50;99.90;;;;;;5117714;28;20217;-44
2022/07/05 00:51:28;;;;;;;4.37;3.50;;;15.60;99.90;;;;;;5117448;28;20179;-43
2022/07/05 00:53:54;;;;;;;4.17;3.40;;;15.50;99.90;;;;;;5117159;28;20220;-45
2022/07/05 00:56:22;;;;;;;6.53;3.40;;;15.50;99.90;;;;;;5117082;28;20194;-45
2022/07/05 00:58:47;;;;;;;3.77;2.83;;;15.50;99.90;;;;;;5117671;28;20281;-42
2022/07/05 01:01:13;;;;;;;4.70;3.30;;;15.50;99.90;;;;;;5116903;28;20605;-42
2022/07/05 01:03:38;;;;;;;5.70;3.40;;;15.50;99.90;;;;;;5116905;28;20175;-40
2022/07/05 01:06:09;;;;;;;6.50;3.63;;;15.50;99.90;;;;;;5117146;28;20221;-42
2022/07/05 01:08:38;;;;;;;5.50;2.90;;;15.40;99.90;;;;;;5117121;28;20175;-42
2022/07/05 01:11:05;;;;;;;4.47;3.33;;;15.40;99.90;;;;;;5116736;28;20698;-42
2022/07/05 01:13:31;;;;;;;4.07;3.17;;;15.40;99.90;;;;;;5116710;28;20184;-42
2022/07/05 01:15:58;;;;;;;4.07;3.07;;;15.40;99.90;;;;;;5116548;28;20287;-43
2022/07/05 01:18:24;;;;;;;2.73;2.50;;;15.30;99.90;;;;;;5116918;28;20179;-42
2022/07/05 01:20:50;;;;;;;3.30;2.77;;;15.30;99.90;;;;;;5116802;28;20284;-40
2022/07/05 01:23:18;;;;;;;3.93;3.07;;;15.30;99.90;;;;;;5116776;28;20174;-40
2022/07/05 01:25:45;;;;;;;3.40;3.10;;;15.20;99.90;;;;;;5116505;28;20174;-40
2022/07/05 01:28:11;;;;;;;3.40;3.10;;;15.20;99.90;;;;;;5116948;28;20555;-41
2022/07/05 01:30:39;;;;;;;5.67;3.33;;;15.10;99.90;;;;;;5116851;28;20194;-39
2022/07/05 01:33:06;;;;;;;3.57;3.27;;;15.10;99.90;;;;;;5116664;28;20183;-41
2022/07/05 01:35:32;;;;;;;4.37;2.93;;;15.10;99.90;;;;;;5116235;28;20206;-41
2022/07/05 01:37:59;;;;;;;3.10;2.80;;;15.10;99.90;;;;;;5116590;28;20171;-37
2022/07/05 01:40:25;;;;;;;3.57;2.83;;;15.00;99.90;;;;;;5117535;28;20204;-40
2022/07/05 01:42:50;;;;;;;3.83;2.67;;;14.90;99.90;;;;;;5116503;28;20297;-41
2022/07/05 01:48:04;;;;;;;3.50;2.87;;;14.80;99.90;;;;;;5116541;28;20167;-41
2022/07/05 01:50:33;;;;;;;4.63;2.47;;;14.80;99.90;;;;;;5116647;28;20238;-41
2022/07/05 01:53:00;;;;;;;3.57;2.87;;;14.70;99.90;;;;;;5116555;28;20201;-41
2022/07/05 01:55:26;;;;;;;3.83;2.70;;;14.60;99.90;;;;;;5115981;28;20717;-40
2022/07/05 01:57:52;;;;;;;5.43;2.83;;;14.60;99.90;;;;;;5115975;28;20213;-39
2022/07/05 02:00:17;;;;;;;5.27;2.80;;;14.50;99.90;;;;;;5115922;28;20201;-40
2022/07/05 02:02:44;;;;;;;4.57;2.90;;;14.50;99.90;;;;;;5115927;28;20174;-41
2022/07/05 02:05:10;;;;;;;3.37;2.80;;;14.50;99.90;;;;;;5115725;28;20226;-41
2022/07/05 02:07:35;;;;;;;2.70;2.50;;;14.40;99.90;;;;;;5116121;28;20190;-40
2022/07/05 02:10:01;;;;;;;6.10;2.73;;;14.40;99.90;;;;;;5115665;28;20318;-41
2022/07/05 02:12:26;;;;;;;8.33;3.60;;;14.40;99.90;;;;;;5116148;28;20182;-41
2022/07/05 02:14:52;;;;;;;4.43;2.87;;;14.40;99.90;;;;;;5115965;28;20201;-41
2022/07/05 02:17:17;;;;;;;3.97;2.93;;;14.40;99.90;;;;;;5116183;28;20177;-41
2022/07/05 02:19:43;;;;;;;3.13;2.83;;;14.40;99.90;;;;;;5115703;28;20190;-41
2022/07/05 02:22:09;;;;;;;3.57;2.67;;;14.40;99.90;;;;;;5116035;28;20174;-39
2022/07/05 02:24:34;;;;;;;4.70;2.67;;;14.30;99.90;;;;;;5115413;28;20170;-39
2022/07/05 02:27:00;;;;;;;3.80;2.80;;;14.30;99.90;;;;;;5115270;28;20182;-38
2022/07/05 02:29:25;;;;;;;3.80;2.63;;;14.30;99.90;;;;;;5115492;28;20234;-40
2022/07/05 02:31:51;;;;;;;4.77;3.10;;;14.20;99.90;;;;;;5115276;28;20174;-39
2022/07/05 02:34:17;;;;;;;5.10;3.40;;;14.20;99.90;;;;;;5115145;28;20209;-40
2022/07/05 02:36:42;;;;;;;3.33;2.73;;;14.10;99.90;;;;;;5114638;28;20214;-39
2022/07/05 02:39:08;;;;;;;4.50;3.00;;;14.20;99.90;;;;;;5115145;28;20194;-41
2022/07/05 02:41:33;;;;;;;3.53;3.23;;;14.10;99.90;;;;;;5115430;28;20170;-38
2022/07/05 02:43:59;;;;;;;4.10;3.57;;;14.20;99.90;;;;;;5115227;28;20170;-40
2022/07/05 02:46:25;;;;;;;5.03;3.63;;;14.10;99.90;;;;;;5114969;28;20174;-38
2022/07/05 02:48:51;;;;;;;4.67;3.40;;;14.10;99.90;;;;;;5114982;28;20198;-40
2022/07/05 02:51:17;;;;;;;3.87;3.10;;;14.10;99.90;;;;;;5114954;28;20171;-38
2022/07/05 02:53:42;;;;;;;3.37;3.03;;;14.00;99.90;;;;;;5118066;28;20181;-44
2022/07/05 02:56:08;;;;;;;3.80;3.13;;;14.00;99.90;;;;;;5119333;28;20197;-44
2022/07/05 02:58:33;;;;;;;3.50;3.20;;;14.00;99.90;;;;;;5119312;28;20239;-44
2022/07/05 03:00:59;;;;;;;4.57;3.40;;;14.00;99.90;;;;;;5119328;28;20238;-44
2022/07/05 03:03:25;;;;;;;4.60;3.10;;;13.90;99.90;;;;;;5119631;28;20625;-44
2022/07/05 03:05:50;;;;;;;3.40;2.87;;;13.80;99.90;;;;;;5119532;28;20234;-45
2022/07/05 03:08:16;;;;;;;6.17;4.07;;;13.80;99.90;;;;;;5119827;28;20283;-43
2022/07/05 03:10:41;;;;;;;4.43;4.03;;;13.80;99.90;;;;;;5120149;28;20197;-43
2022/07/05 03:13:07;;;;;;;4.90;4.07;;;13.90;99.90;;;;;;5119206;28;20170;-43
2022/07/05 03:15:33;;;;;;;5.80;4.07;;;13.80;99.90;;;;;;5119338;28;20194;-43
2022/07/05 03:17:58;;;;;;;7.73;3.97;;;13.80;99.90;;;;;;5119521;28;20258;-43
2022/07/05 03:20:24;;;;;;;7.50;4.50;;;13.80;99.90;;;;;;5119698;28;20624;-45
2022/07/05 03:22:50;;;;;;;5.73;4.07;;;13.80;99.90;;;;;;5119462;28;20189;-45
2022/07/05 03:25:15;;;;;;;6.43;4.23;;;13.80;99.90;;;;;;5119504;28;20178;-45
2022/07/05 03:27:41;;;;;;;7.43;4.87;;;13.70;99.90;;;;;;5120091;28;20188;-44
2022/07/05 03:30:07;;;;;;;5.27;4.73;;;13.80;99.90;;;;;;5119381;28;20213;-45
2022/07/05 03:32:33;;;;;;;5.27;4.17;;;13.80;99.90;;;;;;5119277;28;20205;-45
2022/07/05 03:34:58;;;;;;;5.10;4.53;;;13.80;99.90;;;;;;5119578;28;20563;-43
2022/07/05 03:37:24;;;;;;;7.00;4.20;;;13.80;99.90;;;;;;5118701;28;20186;-43
2022/07/05 03:39:49;;;;;;;5.67;3.87;;;13.80;99.90;;;;;;5118988;28;20191;-44
2022/07/05 03:42:15;;;;;;;5.23;3.97;;;13.80;99.90;;;;;;5118863;28;20184;-44
2022/07/05 03:44:40;;;;;;;4.13;3.70;;;13.90;99.90;;;;;;5100140;28;20174;-44
2022/07/05 03:47:06;;;;;;;4.63;3.80;;;13.90;99.90;;;;;;5118463;28;20645;-43
2022/07/05 03:49:32;;;;;;;4.30;3.50;;;13.80;99.90;;;;;;5118213;28;20249;-43
2022/07/05 03:51:57;;;;;;;7.60;3.17;;;13.80;99.90;;;;;;5119165;28;20170;-43
2022/07/05 03:54:23;;;;;;;3.73;3.00;;;13.70;99.90;;;;;;5118980;28;20177;-43
2022/07/05 03:56:48;;;;;;;3.93;3.17;;;13.70;99.90;;;;;;5119369;28;20198;-45
2022/07/05 03:59:14;;;;;;;6.50;3.70;;;13.70;99.90;;;;;;5118640;28;20193;-44
2022/07/05 04:01:39;;;;;;;7.40;3.70;;;13.60;99.90;;;;;;5118979;28;20311;-44
2022/07/05 04:04:05;;;;;;;5.37;3.30;;;13.60;99.90;;;;;;5118874;28;20174;-44
2022/07/05 04:06:30;;;;;;;4.17;3.70;;;13.60;99.90;;;;;;5119358;28;20212;-44
2022/07/05 04:08:56;;;;;;;4.80;3.43;;;13.60;99.90;;;;;;5118449;28;20198;-44
2022/07/05 04:11:21;;;;;;;7.23;3.50;;;13.60;99.90;;;;;;5119184;28;20178;-44
2022/07/05 04:13:47;;;;;;;5.43;3.60;;;13.60;99.90;;;;;;5118348;28;20184;-44
2022/07/05 04:16:13;;;;;;;7.07;3.33;;;13.60;99.90;;;;;;5119818;28;20202;-43
2022/07/05 04:18:38;;;;;;;12.20;3.93;;;13.60;99.90;;;;;;5118397;28;20181;-43
2022/07/05 04:21:05;;;;;;;5.73;3.63;;;13.50;99.90;;;;;;5118287;28;20212;-46
2022/07/05 04:23:31;;;;;;;8.30;4.17;;;13.50;99.90;;;;;;5118344;28;20181;-44
2022/07/05 04:25:56;;;;;;;9.17;3.90;;;13.50;99.90;;;;;;5118244;28;20181;-44
2022/07/05 04:28:22;;;;;;;10.63;4.20;;;13.40;99.90;;;;;;5117455;28;20186;-44
2022/07/05 04:30:48;;;;;;;4.77;4.33;;;13.50;99.90;;;;;;5117433;28;20229;-44
2022/07/05 04:33:13;;;;;;;4.60;4.10;;;13.50;99.90;;;;;;5116500;28;20178;-43
2022/07/05 04:35:39;;;;;;;5.83;4.50;;;13.50;99.90;;;;;;5095536;28;20224;-39
2022/07/05 04:38:05;;;;;;;7.57;4.90;;;13.50;99.90;;;;;;5113946;28;20614;-40
2022/07/05 04:40:30;;;;;;;4.63;4.10;;;13.40;99.90;;;;;;5114070;28;20194;-40
2022/07/05 04:42:56;;;;;;;4.90;4.40;;;13.50;99.90;;;;;;5113924;28;20539;-40
2022/07/05 04:45:22;;;;;;;9.10;4.67;;;13.50;99.90;;;;;;5116915;28;20239;-40
2022/07/05 04:47:47;;;;;;;5.70;4.40;;;13.50;99.90;;;;;;5115120;28;20412;-43
2022/07/05 04:50:13;;;;;;;7.17;5.20;;;13.50;99.90;;;;;;5117037;28;20203;-40
2022/07/05 04:52:39;;;;;;;9.17;5.37;;;13.50;99.90;;;;;;5115645;28;20178;-39
2022/07/05 04:55:05;;;;;;;7.27;5.73;;;13.60;99.90;;;;;;5115511;28;20194;-42
2022/07/05 04:57:41;;;;;;;7.70;5.60;;;13.60;99.90;;;;;;5114493;28;20178;-40
2022/07/05 05:00:11;;;;;;;7.40;5.87;;;13.60;99.90;;;;;;5115524;28;20737;-41
2022/07/05 05:02:37;;;;;;;8.43;5.50;;;13.70;99.90;;;;;;5117945;28;20577;-40
2022/07/05 05:05:03;;;;;;;7.43;5.83;;;13.80;99.90;;;;;;5117188;28;20265;-41
2022/07/05 05:07:30;;;;;;;7.50;6.17;;;13.80;99.90;;;;;;5120755;28;20230;-40
2022/07/05 05:09:55;;;;;;;9.40;5.87;;;13.90;99.90;;;;;;5117923;28;20205;-41
2022/07/05 05:12:22;;;;;;;6.97;5.90;;;14.00;99.90;;;;;;5118665;28;20261;-41
2022/07/05 05:14:48;;;;;;;9.90;5.97;;;14.10;99.90;;;;;;5120310;28;20192;-41
2022/07/05 05:17:14;;;;;;;8.77;6.23;;;14.20;99.90;;;;;;5118449;28;20262;-41
2022/07/05 05:19:39;;;;;;;9.70;6.37;;;14.20;99.90;;;;;;5117185;28;20232;-39
2022/07/05 05:22:05;;;;;;;8.00;6.43;;;14.30;99.90;;;;;;5098487;28;20175;-40
2022/07/05 05:24:31;;;;;;;8.20;5.97;;;14.40;99.90;;;;;;5119711;28;20628;-39
2022/07/05 05:26:57;;;;;;;10.70;6.53;;;14.50;99.90;;;;;;5117224;28;20193;-40
2022/07/05 05:29:22;;;;;;;9.43;7.10;;;14.60;99.90;;;;;;5116822;28;20560;-41
2022/07/05 05:31:48;;;;;;;7.67;6.67;;;14.70;99.90;;;;;;5116723;28;20300;-40
2022/07/05 05:34:13;;;;;;;10.83;7.07;;;14.70;99.90;;;;;;5116625;28;20223;-39
2022/07/05 05:36:39;;;;;;;9.37;7.63;;;14.80;99.90;;;;;;5116231;28;20225;-37
2022/07/05 05:39:05;;;;;;;8.27;7.20;;;14.90;99.90;;;;;;5116270;28;20201;-37
2022/07/05 05:41:30;;;;;;;9.60;7.37;;;15.00;99.90;;;;;;5116507;28;20183;-39
2022/07/05 05:43:56;;;;;;;10.50;7.53;;;15.10;99.90;;;;;;5116479;28;20235;-38
2022/07/05 05:46:22;;;;;;;10.23;7.83;;;15.20;99.90;;;;;;5116152;28;20232;-38
2022/07/05 05:48:47;;;;;;;12.23;7.53;;;15.30;99.90;;;;;;5115991;28;20228;-40
2022/07/05 05:51:13;;;;;;;9.37;7.50;;;15.40;99.90;;;;;;5116417;28;20181;-40
2022/07/05 05:53:39;;;;;;;9.27;7.63;;;15.50;99.90;;;;;;5116025;28;20546;-40
2022/07/05 05:56:04;;;;;;;9.83;7.80;;;15.60;99.90;;;;;;5115873;28;20205;-40
2022/07/05 05:58:30;;;;;;;9.03;7.60;;;15.60;99.90;;;;;;5116069;28;20182;-39
2022/07/05 06:00:56;;;;;;;10.33;7.50;;;15.70;99.90;;;;;;5116159;28;20174;-41
2022/07/05 06:03:23;;;;;;;7.97;6.70;;;15.80;99.90;;;;;;5115901;28;20174;-38
2022/07/05 06:05:49;;;;;;;12.90;7.23;;;15.90;99.90;;;;;;5115805;28;20182;-40
2022/07/05 06:08:15;;;;;;;10.03;7.23;;;16.00;99.90;;;;;;5116026;28;20205;-40
2022/07/05 06:10:41;;;;;;;9.17;7.47;;;16.10;99.90;;;;;;5115597;28;20198;-38
2022/07/05 06:13:09;;;;;;;7.93;6.77;;;16.20;99.90;;;;;;5096448;28;20193;-39
2022/07/05 06:15:35;;;;;;;10.23;6.73;;;16.40;99.90;;;;;;5115444;28;20203;-39
2022/07/05 06:18:02;;;;;;;9.13;6.43;;;16.50;99.90;;;;;;5097294;28;20600;-40
2022/07/05 06:20:30;;;;;;;10.90;6.97;;;16.70;99.90;;;;;;5117419;28;20276;-40
2022/07/05 06:22:56;;;;;;;8.13;6.80;;;16.80;99.90;;;;;;5115863;28;20274;-39
2022/07/05 06:25:22;;;;;;;6.83;6.13;;;17.00;99.90;;;;;;5115369;28;20257;-39
2022/07/05 06:27:50;;;;;;;7.53;6.53;;;17.20;99.90;;;;;;5097066;28;20186;-38
2022/07/05 06:30:19;;;;;;;9.57;6.87;;;17.40;99.90;;;;;;5115224;28;20198;-40
2022/07/05 06:32:45;;;;;;;10.67;6.07;;;17.60;99.90;;;;;;5115555;28;20212;-40
2022/07/05 06:35:11;;;;;;;10.50;5.33;;;17.80;99.90;;;;;;5115140;28;20216;-39
2022/07/05 06:37:53;;;;;;;8.33;5.63;;;18.10;99.90;;;;;;5115068;28;20663;-41
2022/07/05 06:40:33;;;;;;;8.10;5.63;;;18.40;99.90;;;;;;5115054;28;20201;-39
2022/07/05 06:43:02;;;;;;;7.67;5.33;;;18.40;99.90;;;;;;5115278;28;20165;-40
2022/07/05 06:45:27;;;;;;;7.37;5.10;;;18.50;99.90;;;;;;5114984;28;20180;-40
2022/07/05 06:47:59;;;;;;;10.97;5.43;;;18.60;99.90;;;;;;5114935;28;20265;-40
2022/07/05 06:50:26;;;;;;;8.87;4.27;;;18.70;99.90;;;;;;5114835;28;20206;-40
2022/07/05 06:52:52;;;;;;;7.23;4.10;;;18.70;99.90;;;;;;5114977;28;20629;-38
2022/07/05 06:55:18;;;;;;;7.53;3.20;;;18.90;99.90;;;;;;5114697;28;20206;-40
2022/07/05 06:57:45;;;;;;;4.30;3.50;;;19.00;99.90;;;;;;5115075;28;20174;-41
2022/07/05 07:00:11;;;;;;;5.20;3.80;;;18.90;99.90;;;;;;5120116;28;20202;-40
2022/07/05 07:02:37;;;;;;;6.73;4.40;;;19.00;99.90;;;;;;5114941;28;20182;-40
2022/07/05 07:05:02;;;;;;;5.63;4.30;;;19.00;99.90;;;;;;5114889;28;20185;-40
2022/07/05 07:10:15;;;;;;;6.63;3.73;;;19.40;99.90;;;;;;5114820;28;20565;-40
2022/07/05 07:12:41;;;;;;;5.87;3.60;;;19.80;99.90;;;;;;5114794;28;20253;-41
2022/07/05 07:15:07;;;;;;;6.10;3.70;;;20.20;99.90;;;;;;5114491;28;20541;-40
2022/07/05 07:17:33;;;;;;;9.20;3.87;;;20.70;99.90;;;;;;5114694;28;20522;-40
2022/07/05 07:19:58;;;;;;;4.13;3.57;;;21.10;99.90;;;;;;5114569;28;20204;-40
2022/07/05 07:22:24;;;;;;;4.70;3.77;;;21.40;99.90;;;;;;5114300;28;20208;-39
2022/07/05 07:24:49;;;;;;;7.53;4.33;;;21.60;99.90;;;;;;5114157;28;20178;-39
2022/07/05 07:27:15;;;;;;;6.20;3.70;;;21.70;99.90;;;;;;5114272;28;20257;-38
2022/07/05 07:29:41;;;;;;;5.20;4.20;;;21.60;99.90;;;;;;5114057;28;20205;-38
2022/07/05 07:32:08;;;;;;;9.33;3.67;;;21.60;99.90;;;;;;5114203;28;20178;-39
2022/07/05 07:34:36;;;;;;;5.30;4.10;;;21.60;99.90;;;;;;5114383;28;20672;-40
2022/07/05 07:37:03;;;;;;;6.70;3.83;;;21.90;99.90;;;;;;5113866;28;20624;-38
2022/07/05 07:39:29;;;;;;;4.57;3.53;;;22.40;99.90;;;;;;5114264;28;20585;-40
2022/07/05 07:41:54;;;;;;;5.77;3.60;;;22.70;99.90;;;;;;5114050;28;20175;-38
2022/07/05 07:44:20;;;;;;;8.43;3.50;;;22.90;99.90;;;;;;5114001;28;20683;-38
2022/07/05 07:46:46;;;;;;;6.70;3.97;;;23.10;99.90;;;;;;5113950;28;20186;-38
2022/07/05 07:49:12;;;;;;;7.20;3.83;;;23.30;99.90;;;;;;5114409;28;20194;-37
2022/07/05 07:51:39;;;;;;;7.87;3.70;;;23.30;99.90;;;;;;5114231;28;20265;-39
2022/07/05 07:54:05;;;;;;;5.03;3.40;;;23.30;99.90;;;;;;5113905;28;20174;-37
2022/07/05 07:56:30;;;;;;;8.57;3.20;;;23.20;99.90;;;;;;5114134;28;20731;-39
2022/07/05 07:58:56;;;;;;;5.13;3.20;;;23.10;99.90;;;;;;5113954;28;20194;-40
2022/07/05 08:01:22;;;;;;;4.60;2.80;;;23.10;99.90;;;;;;5113838;28;20174;-39
2022/07/05 08:03:48;;;;;;;3.03;2.37;;;23.30;99.90;;;;;;5114914;28;20178;-39
2022/07/05 08:06:15;;;;;;;4.77;2.60;;;23.70;99.90;;;;;;5113779;28;20182;-38
2022/07/05 08:08:44;;;;;;;4.37;2.20;;;23.90;99.90;;;;;;5113926;28;20186;-40
2022/07/05 08:11:10;;;;;;;3.83;2.37;;;24.00;99.90;;;;;;5113681;28;20186;-38
2022/07/05 08:13:36;;;;;;;3.23;2.00;;;24.10;99.90;;;;;;5113714;28;20178;-38
2022/07/05 08:16:02;;;;;;;8.93;2.30;;;24.30;99.90;;;;;;5113554;28;20731;-39
2022/07/05 08:21:30;;;;;;;3.27;2.20;;;24.40;99.90;;;;;;5114237;28;20223;-39
2022/07/05 08:23:57;;;;;;;3.23;1.90;;;24.50;99.90;;;;;;5113644;28;20172;-41
2022/07/05 08:26:22;;;;;;;2.73;2.20;;;24.30;99.90;;;;;;5113906;28;20213;-39
2022/07/05 08:28:48;;;;;;;2.60;1.90;;;24.10;99.90;;;;;;5113725;28;20624;-43
2022/07/05 08:31:14;;;;;;;2.70;1.50;;;23.90;99.90;;;;;;5113547;28;20247;-42
2022/07/05 08:33:39;;;;;;;1.83;1.20;;;23.90;99.90;;;;;;5113503;28;20185;-43
2022/07/05 08:36:05;;;;;;;5.87;1.80;;;24.00;99.90;;;;;;5115784;28;20218;-43
2022/07/05 08:38:31;;;;;;;4.40;1.50;;;24.10;99.90;;;;;;5117637;28;20260;-43
2022/07/05 08:40:57;;;;;;;6.63;1.70;;;24.30;99.90;;;;;;5117448;28;20231;-42
2022/07/05 08:43:23;;;;;;;2.07;1.50;;;24.50;99.90;;;;;;5117695;28;20269;-44
2022/07/05 08:45:58;;;;;;;2.27;1.70;;;24.70;99.90;;;;;;5099150;28;20206;-42
2022/07/05 08:48:26;;;;;;;2.60;1.60;;;25.00;99.90;;;;;;5117555;28;20582;-43
2022/07/05 08:50:54;;;;;;;2.60;1.67;;;25.00;99.90;;;;;;5117800;28;20581;-43
2022/07/05 08:53:20;;;;;;;4.00;1.83;;;25.00;99.90;;;;;;5117393;28;20190;-44
2022/07/05 08:55:46;;;;;;;2.37;1.60;;;25.10;99.90;;;;;;5117063;28;20202;-42
2022/07/05 08:58:12;;;;;;;3.03;1.20;;;25.10;99.90;;;;;;5117357;28;20673;-43
2022/07/05 09:00:43;;;;;;;2.20;1.70;;;25.10;99.90;;;;;;5117108;28;20202;-41
2022/07/05 09:03:08;;;;;;;2.40;1.17;;;24.90;99.90;;;;;;5098720;28;20268;-44
2022/07/05 09:05:43;;;;;;;2.33;1.00;;;24.60;99.90;;;;;;5117052;28;20307;-44
2022/07/05 09:08:16;;;;;;;3.17;1.20;;;24.40;99.90;;;;;;5098684;28;20284;-44
2022/07/05 09:10:43;;;;;;;1.43;1.10;;;24.40;99.90;;;;;;5116797;28;20742;-42
2022/07/05 09:13:09;;;;;;;2.17;1.27;;;24.70;99.90;;;;;;5116739;28;20548;-43
2022/07/05 09:15:38;;;;;;;2.83;1.60;;;24.90;99.90;;;;;;5116690;28;20198;-42
2022/07/05 09:18:04;;;;;;;2.13;1.50;;;24.80;99.90;;;;;;5116765;28;20186;-42
2022/07/05 09:20:29;;;;;;;2.63;1.33;;;24.50;99.90;;;;;;5116647;28;20195;-42
2022/07/05 09:22:56;;;;;;;2.80;1.53;;;24.40;99.90;;;;;;5116644;28;20198;-44
2022/07/05 09:25:28;;;;;;;2.80;1.60;;;24.40;99.90;;;;;;5116562;28;20656;-44
2022/07/05 09:28:06;;;;;;;3.17;1.70;;;24.70;99.90;;;;;;5116557;28;20178;-45
2022/07/05 09:30:37;;;;;;;4.53;1.70;;;24.90;99.90;;;;;;5097999;28;20259;-43
2022/07/05 09:33:06;;;;;;;1.43;1.30;;;24.80;99.90;;;;;;5116726;28;20169;-45
2022/07/05 09:35:34;;;;;;;2.07;1.23;;;24.80;99.90;;;;;;5116229;28;20618;-44
2022/07/05 09:38:02;;;;;;;2.00;1.30;;;24.70;99.90;;;;;;5116591;28;20174;-45
2022/07/05 09:40:46;;;;;;;2.17;1.20;;;24.60;99.90;;;;;;5116504;28;20224;-43
2022/07/05 09:43:17;;;;;;;2.80;1.13;;;24.70;99.90;;;;;;5116239;28;20181;-43
2022/07/05 09:46:01;;;;;;;3.53;1.70;;;24.40;99.90;;;;;;5116487;28;20577;-46
2022/07/05 09:48:28;;;;;;;2.83;1.43;;;24.20;99.90;;;;;;5115166;28;20660;-44
2022/07/05 09:51:13;;;;;;;3.20;1.50;;;24.20;99.90;;;;;;5116094;28;20190;-42
2022/07/05 09:53:47;;;;;;;3.47;1.40;;;24.30;99.90;;;;;;5116223;28;20166;-44
2022/07/05 09:56:13;;;;;;;4.07;1.80;;;24.40;99.90;;;;;;5116306;28;20673;-44
2022/07/05 09:58:40;;;;;;;3.50;1.60;;;24.60;99.90;;;;;;5115966;28;20629;-43
2022/07/05 10:01:28;;;;;;;2.77;1.30;;;24.70;99.90;;;;;;5116256;28;20253;-45
2022/07/05 10:03:55;;;;;;;3.60;1.10;;;25.00;99.90;;;;;;5115983;28;20174;-44
2022/07/05 10:06:26;;;;;;;2.47;1.17;;;24.90;99.90;;;;;;5116088;28;20190;-43
2022/07/05 10:08:53;;;;;;;4.70;1.10;;;24.90;99.90;;;;;;5115970;28;20190;-46
2022/07/05 10:11:20;;;;;;;2.83;0.97;;;24.80;99.90;;;;;;5115744;28;20221;-42
2022/07/05 10:13:48;;;;;;;4.70;1.00;;;24.60;99.90;;;;;;5115688;28;20188;-44
2022/07/05 10:16:16;;;;;;;2.90;1.10;;;24.60;99.90;;;;;;5115759;28;20206;-44
2022/07/05 10:19:00;;;;;;;3.67;0.97;;;24.70;99.90;;;;;;5115847;28;20173;-43
2022/07/05 10:21:27;;;;;;;1.57;1.17;;;25.00;99.90;;;;;;5115887;28;20162;-44
2022/07/05 10:23:56;;;;;;;1.07;0.80;;;25.20;99.90;;;;;;5115573;28;20197;-43
2022/07/05 10:26:23;;;;;;;3.63;1.27;;;25.30;99.90;;;;;;5115457;28;20214;-44
2022/07/05 10:28:52;;;;;;;2.10;0.82;;;25.10;99.90;;;;;;5115709;28;20762;-44
2022/07/05 10:31:18;;;;;;;2.50;1.05;;;25.00;99.90;;;;;;5115297;28;20645;-44
2022/07/05 10:33:45;;;;;;;5.45;1.30;;;25.00;99.90;;;;;;5115578;28;20178;-46
2022/07/05 10:36:11;;;;;;;4.70;0.97;;;24.90;98.40;;;;;;5115201;28;20202;-44
2022/07/05 10:38:41;;;;;;;1.65;1.20;;;24.80;99.90;;;;;;5115139;28;20181;-44
2022/07/05 10:41:10;;;;;;;1.65;1.30;;;24.80;99.90;;;;;;5097010;28;20664;-42
2022/07/05 10:43:36;;;;;;;3.00;1.20;;;24.50;98.80;;;;;;5115399;28;20564;-44
2022/07/05 10:46:06;;;;;;;1.48;1.00;;;24.30;99.90;;;;;;5115130;28;20174;-43
2022/07/05 10:48:32;;;;;;;2.17;1.20;;;24.10;99.90;;;;;;5118165;28;20154;-44
2022/07/05 10:51:14;;;;;;;3.67;1.33;;;24.10;99.90;;;;;;5115079;28;20261;-44
2022/07/05 10:53:40;;;;;;;1.35;0.88;;;24.20;99.90;;;;;;5115340;28;20174;-45
2022/07/05 10:56:05;;;;;;;2.40;1.40;;;24.40;99.90;;;;;;5114817;28;20197;-43
2022/07/05 10:58:42;;;;;;;2.00;1.20;;;24.60;99.90;;;;;;5114921;28;20171;-43
2022/07/05 11:01:20;;;;;;;1.88;1.00;;;24.70;99.90;;;;;;5115242;28;20170;-43
2022/07/05 11:04:00;;;;;;;3.60;1.27;;;24.90;99.90;;;;;;5114904;28;20170;-43
2022/07/05 11:06:39;;;;;;;2.00;1.10;;;25.10;99.90;;;;;;5114769;28;20166;-42
2022/07/05 11:09:11;;;;;;;2.55;1.00;;;25.40;99.90;;;;;;5096463;28;20202;-43
2022/07/05 11:11:41;;;;;;;1.13;1.00;;;25.40;99.90;;;;;;5114837;28;20200;-45
2022/07/05 11:14:22;;;;;;;2.13;1.13;;;25.20;99.90;;;;;;5114746;28;20181;-44
2022/07/05 11:17:08;;;;;;;1.30;1.00;;;25.20;99.90;;;;;;5114886;28;20194;-45
2022/07/05 11:19:34;;;;;;;5.05;1.20;;;25.20;99.90;;;;;;5100863;28;20206;-44
2022/07/05 11:22:01;;;;;;;5.32;1.08;;;25.20;99.90;;;;;;5115234;28;20177;-44
2022/07/05 11:24:37;;;;;;;1.55;0.95;;;25.00;99.80;;;;;;5115119;28;20536;-44
2022/07/05 11:27:08;;;;;;;1.55;0.88;;;24.80;99.90;;;;;;5115375;28;20703;-45
2022/07/05 11:29:50;;;;;;;1.25;1.00;;;24.90;99.90;;;;;;5115033;28;20198;-46
2022/07/05 11:32:16;;;;;;;3.70;1.17;;;25.20;99.90;;;;;;5114663;28;20653;-46
2022/07/05 11:34:43;;;;;;;2.53;1.10;;;25.50;99.90;;;;;;5114502;28;20192;-44
2022/07/05 11:37:32;;;;;;;2.47;1.15;;;25.70;99.90;;;;;;5114334;28;20213;-45
2022/07/05 11:40:06;;;;;;;3.17;1.48;;;25.90;99.90;;;;;;5114646;28;20282;-46
2022/07/05 11:42:34;;;;;;;1.95;1.20;;;25.60;98.30;;;;;;5114552;28;20192;-45
2022/07/05 11:45:00;;;;;;;2.05;1.15;;;25.30;99.40;;;;;;5115016;28;20181;-45
2022/07/05 11:47:27;;;;;;;3.80;1.20;;;25.00;99.90;;;;;;5114610;28;20182;-46
2022/07/05 11:49:57;;;;;;;1.98;1.40;;;25.00;99.90;;;;;;5114847;28;20204;-46
2022/07/05 11:52:27;;;;;;;1.90;1.13;;;25.00;99.90;;;;;;5115262;28;20190;-45
2022/07/05 11:54:53;;;;;;;1.38;1.20;;;25.00;99.90;;;;;;5114575;28;20208;-45
2022/07/05 11:57:20;;;;;;;2.17;1.25;;;25.00;99.80;;;;;;5114926;28;20238;-46
2022/07/05 11:59:46;;;;;;;2.47;1.30;;;24.90;99.90;;;;;;5114689;28;20198;-45
2022/07/05 12:02:12;;;;;;;3.20;1.25;;;24.90;99.90;;;;;;5114631;28;20528;-45
2022/07/05 12:04:38;;;;;;;1.52;1.00;;;25.00;99.90;;;;;;5097523;28;20201;-46
2022/07/05 12:07:04;;;;;;;0.95;0.90;;;25.10;99.90;;;;;;5114671;28;20178;-44
2022/07/05 12:12:42;;;;;;;2.33;1.00;;;25.20;99.90;;;;;;5114568;28;20606;-45
2022/07/05 12:12:42;;;;;;;1.27;1.17;;;25.30;99.90;;;;;;5118677;28;20541;-45
2022/07/05 12:15:12;;;;;;;2.22;1.25;;;25.50;99.90;;;;;;5118978;28;20162;-45
2022/07/05 12:17:40;;;;;;;2.55;1.33;;;25.60;99.90;;;;;;5119027;28;20198;-46
2022/07/05 12:20:07;;;;;;;3.28;1.30;;;25.70;99.20;;;;;;5119017;28;20732;-46
2022/07/05 12:22:36;;;;;;;1.52;1.00;;;25.50;99.90;;;;;;5118382;28;20625;-46
2022/07/05 12:25:04;;;;;;;2.35;1.42;;;25.20;99.90;;;;;;5119442;28;20185;-45
2022/07/05 12:27:32;;;;;;;3.53;1.23;;;25.30;99.90;;;;;;5118845;28;20179;-44
2022/07/05 12:29:58;;;;;;;1.60;1.10;;;25.20;99.90;;;;;;5118455;28;20197;-45
2022/07/05 12:32:24;;;;;;;2.28;1.65;;;25.10;99.90;;;;;;5117849;28;20182;-44
2022/07/05 12:34:49;;;;;;;2.53;1.60;;;24.90;99.20;;;;;;5117572;28;20174;-43
2022/07/05 12:37:27;;;;;;;2.63;1.40;;;24.80;99.90;;;;;;5117457;28;20210;-44
2022/07/05 12:40:07;;;;;;;2.00;1.27;;;24.90;99.90;;;;;;5117618;28;20193;-43
2022/07/05 12:42:37;;;;;;;1.85;1.35;;;25.00;99.90;;;;;;5117740;28;20162;-44
2022/07/05 12:45:23;;;;;;;2.58;1.30;;;25.10;99.90;;;;;;5120015;28;20178;-44
2022/07/05 12:47:50;;;;;;;3.00;1.10;;;25.00;99.90;;;;;;5117661;28;20170;-44
2022/07/05 12:50:16;;;;;;;3.00;1.40;;;25.10;99.90;;;;;;5117457;28;20590;-40
2022/07/05 12:59:01;;;;;;;2.15;1.20;;;25.30;99.90;;;;;;5117796;28;20158;-42
2022/07/05 13:01:28;;;;;;;3.33;1.38;;;25.40;99.30;;;;;;5117868;28;20171;-44
2022/07/05 13:04:05;;;;;;;5.72;1.52;;;25.50;99.30;;;;;;5117412;28;20177;-44